sensor_id;sensor_type;location;lat;lon;timestamp;temperature;humidity
4429;DHT22;2227;47.810;8.810;2024-03-22T04:49:48;8.30;99.90
4429;DHT22;2227;47.810;8.810;2024-03-22T04:52:13;8.30;99.90
4429;DHT22;2227;47.810;8.810;2024-03-22T04:54:39;8.30;99.90
4429;DHT22;2227;47.810;8.810;2024-03-22T04:57:05;8.20;99.90
4429;DHT22;2227;47.810;8.810;2024-03-22T04:59:31;8.40;99.90
4429;DHT22;2227;47.810;8.810;2024-03-22T05:01:56;8.30;99.90
4429;DHT22;2227;47.810;8.810;2024-03-22T05:04:22;8.30;99.90
4429;DHT22;2227;47.810;8.810;2024-03-22T05:06:48;8.30;99.90
4429;DHT22;2227;47.810;8.810;2024-03-22T05:09:14;8.30;99.90
4429;DHT22;2227;47.810;8.810;2024-03-22T05:11:40;8.30;99.90
4429;DHT22;2227;47.810;8.810;2024-03-22T05:14:05;8.10;99.90
4429;DHT22;2227;47.810;8.810;2024-03-22T05:16:31;8.10;99.90
4429;DHT22;2227;47.810;8.810;2024-03-22T05:18:57;8.20;99.90
4429;DHT22;2227;47.810;8.810;2024-03-22T05:21:23;8.20;99.90
4429;DHT22;2227;47.810;8.810;2024-03-22T05:23:48;8.20;99.90
4429;DHT22;2227;47.810;8.810;2024-03-22T05:26:14;8.10;99.90
4429;DHT22;2227;47.810;8.810;2024-03-22T05:28:40;8.00;99.90
4429;DHT22;2227;47.810;8.810;2024-03-22T05:31:06;8.10;99.90
4429;DHT22;2227;47.810;8.810;2024-03-22T05:33:32;8.10;99.90
4429;DHT22;2227;47.810;8.810;2024-03-22T05:35:57;8.10;99.90
4429;DHT22;2227;47.810;8.810;2024-03-22T05:38:24;8.20;99.90
4429;DHT22;2227;47.810;8.810;2024-03-22T05:40:50;8.20;99.90
4429;DHT22;2227;47.810;8.810;2024-03-22T05:43:16;8.30;99.90
4429;DHT22;2227;47.810;8.810;2024-03-22T05:45:42;8.30;99.90
4429;DHT22;2227;47.810;8.810;2024-03-22T05:48:08;8.40;99.90
4429;DHT22;2227;47.810;8.810;2024-03-22T05:50:33;8.50;99.90
4429;DHT22;2227;47.810;8.810;2024-03-22T05:52:59;8.50;99.90
4429;DHT22;2227;47.810;8.810;2024-03-22T05:55:25;8.40;99.90
4429;DHT22;2227;47.810;8.810;2024-03-22T05:57:53;8.30;99.90
4429;DHT22;2227;47.810;8.810;2024-03-22T06:00:18;8.40;99.90
4429;DHT22;2227;47.810;8.810;2024-03-22T06:02:44;8.50;99.90
4429;DHT22;2227;47.810;8.810;2024-03-22T06:05:10;8.40;99.90
4429;DHT22;2227;47.810;8.810;2024-03-22T06:07:36;8.50;99.90
4429;DHT22;2227;47.810;8.810;2024-03-22T06:10:08;8.60;99.90
4429;DHT22;2227;47.810;8.810;2024-03-22T06:12:35;8.70;99.90
4429;DHT22;2227;47.810;8.810;2024-03-22T06:15:02;8.80;99.90
4429;DHT22;2227;47.810;8.810;2024-03-22T06:17:32;8.90;99.90
4429;DHT22;2227;47.810;8.810;2024-03-22T06:19:59;8.90;99.90
4429;DHT22;2227;47.810;8.810;2024-03-22T06:22:26;8.90;99.90
4429;DHT22;2227;47.810;8.810;2024-03-22T06:24:52;9.00;99.90
4429;DHT22;2227;47.810;8.810;2024-03-22T06:27:18;9.00;99.90
4429;DHT22;2227;47.810;8.810;2024-03-22T06:29:44;9.10;99.90
4429;DHT22;2227;47.810;8.810;2024-03-22T06:32:10;9.20;99.90
4429;DHT22;2227;47.810;8.810;2024-03-22T06:34:36;9.30;99.90
4429;DHT22;2227;47.810;8.810;2024-03-22T06:37:08;9.30;99.90
4429;DHT22;2227;47.810;8.810;2024-03-22T06:39:34;9.30;99.90
4429;DHT22;2227;47.810;8.810;2024-03-22T06:42:00;9.40;99.90
4429;DHT22;2227;47.810;8.810;2024-03-22T06:44:26;9.60;99.90
4429;DHT22;2227;47.810;8.810;2024-03-22T06:46:52;9.70;99.90
4429;DHT22;2227;47.810;8.810;2024-03-22T06:49:18;9.80;99.90
4429;DHT22;2227;47.810;8.810;2024-03-22T06:51:44;10.00;99.90
4429;DHT22;2227;47.810;8.810;2024-03-22T06:54:09;10.10;99.90
4429;DHT22;2227;47.810;8.810;2024-03-22T06:56:35;10.20;99.90
4429;DHT22;2227;47.810;8.810;2024-03-22T06:59:01;10.20;99.90
4429;DHT22;2227;47.810;8.810;2024-03-22T07:01:27;10.10;99.90
4429;DHT22;2227;47.810;8.810;2024-03-22T07:03:52;10.20;99.90
4429;DHT22;2227;47.810;8.810;2024-03-22T07:06:18;10.20;99.90
4429;DHT22;2227;47.810;8.810;2024-03-22T07:08:44;10.40;99.90
4429;DHT22;2227;47.810;8.810;2024-03-22T07:11:10;10.50;99.90
4429;DHT22;2227;47.810;8.810;2024-03-22T07:13:35;10.60;99.90
4429;DHT22;2227;47.810;8.810;2024-03-22T07:16:03;10.60;99.90
4429;DHT22;2227;47.810;8.810;2024-03-22T07:18:29;10.80;99.90
4429;DHT22;2227;47.810;8.810;2024-03-22T07:20:55;11.00;99.90
4429;DHT22;2227;47.810;8.810;2024-03-22T07:23:23;11.30;99.90
4429;DHT22;2227;47.810;8.810;2024-03-22T07:25:49;11.60;99.90
4429;DHT22;2227;47.810;8.810;2024-03-22T07:28:15;11.70;99.90
4429;DHT22;2227;47.810;8.810;2024-03-22T07:30:42;11.90;99.90
4429;DHT22;2227;47.810;8.810;2024-03-22T07:33:09;12.10;99.90
4429;DHT22;2227;47.810;8.810;2024-03-22T07:35:35;12.30;99.90
4429;DHT22;2227;47.810;8.810;2024-03-22T07:38:01;12.50;99.90
4429;DHT22;2227;47.810;8.810;2024-03-22T07:40:27;12.60;99.90
4429;DHT22;2227;47.810;8.810;2024-03-22T07:42:52;12.90;99.90
4429;DHT22;2227;47.810;8.810;2024-03-22T07:45:18;13.00;99.90
4429;DHT22;2227;47.810;8.810;2024-03-22T07:47:44;13.10;99.90
4429;DHT22;2227;47.810;8.810;2024-03-22T07:50:10;13.30;99.90
4429;DHT22;2227;47.810;8.810;2024-03-22T07:52:36;13.60;99.90
4429;DHT22;2227;47.810;8.810;2024-03-22T07:55:02;13.80;99.90
4429;DHT22;2227;47.810;8.810;2024-03-22T07:57:29;14.10;99.90
4429;DHT22;2227;47.810;8.810;2024-03-22T07:59:57;14.30;99.90
4429;DHT22;2227;47.810;8.810;2024-03-22T08:02:23;14.60;99.90
4429;DHT22;2227;47.810;8.810;2024-03-22T08:04:49;15.30;99.90
4429;DHT22;2227;47.810;8.810;2024-03-22T08:07:15;15.80;99.90
4429;DHT22;2227;47.810;8.810;2024-03-22T08:09:41;16.30;99.90
4429;DHT22;2227;47.810;8.810;2024-03-22T08:12:07;17.00;99.90
4429;DHT22;2227;47.810;8.810;2024-03-22T08:14:33;17.70;99.90
4429;DHT22;2227;47.810;8.810;2024-03-22T08:16:59;18.60;99.90
4429;DHT22;2227;47.810;8.810;2024-03-22T08:19:25;19.30;99.90
4429;DHT22;2227;47.810;8.810;2024-03-22T08:21:51;20.00;99.90
4429;DHT22;2227;47.810;8.810;2024-03-22T08:24:18;20.90;99.90
4429;DHT22;2227;47.810;8.810;2024-03-22T08:26:44;21.80;99.90
4429;DHT22;2227;47.810;8.810;2024-03-22T08:29:13;22.80;99.90
4429;DHT22;2227;47.810;8.810;2024-03-22T08:31:40;23.40;97.90
4429;DHT22;2227;47.810;8.810;2024-03-22T08:34:07;23.80;96.20
4429;DHT22;2227;47.810;8.810;2024-03-22T08:36:33;23.50;95.60
4429;DHT22;2227;47.810;8.810;2024-03-22T08:38:59;23.50;95.10
4429;DHT22;2227;47.810;8.810;2024-03-22T08:41:25;23.50;94.70
4429;DHT22;2227;47.810;8.810;2024-03-22T08:43:53;23.80;94.40
4429;DHT22;2227;47.810;8.810;2024-03-22T08:46:19;24.00;94.30
4429;DHT22;2227;47.810;8.810;2024-03-22T08:48:47;25.00;93.20
4429;DHT22;2227;47.810;8.810;2024-03-22T08:51:13;25.80;91.00
4429;DHT22;2227;47.810;8.810;2024-03-22T08:53:39;25.90;90.10
4429;DHT22;2227;47.810;8.810;2024-03-22T08:56:06;26.40;88.70
4429;DHT22;2227;47.810;8.810;2024-03-22T08:58:34;26.80;85.70
4429;DHT22;2227;47.810;8.810;2024-03-22T09:00:59;26.70;83.60
4429;DHT22;2227;47.810;8.810;2024-03-22T09:03:25;25.90;85.10
4429;DHT22;2227;47.810;8.810;2024-03-22T09:05:54;26.70;84.50
4429;DHT22;2227;47.810;8.810;2024-03-22T09:08:20;26.60;81.60
4429;DHT22;2227;47.810;8.810;2024-03-22T09:10:47;26.00;83.80
4429;DHT22;2227;47.810;8.810;2024-03-22T09:13:13;25.50;81.90
4429;DHT22;2227;47.810;8.810;2024-03-22T09:15:39;25.20;81.30
4429;DHT22;2227;47.810;8.810;2024-03-22T09:18:05;24.30;82.20
4429;DHT22;2227;47.810;8.810;2024-03-22T09:20:31;23.70;85.70
4429;DHT22;2227;47.810;8.810;2024-03-22T09:22:57;24.50;84.40
4429;DHT22;2227;47.810;8.810;2024-03-22T09:25:23;23.70;85.80
4429;DHT22;2227;47.810;8.810;2024-03-22T09:27:50;23.90;84.80
4429;DHT22;2227;47.810;8.810;2024-03-22T09:30:16;23.10;87.10
4429;DHT22;2227;47.810;8.810;2024-03-22T09:32:42;23.60;87.00
4429;DHT22;2227;47.810;8.810;2024-03-22T09:35:09;24.10;86.10
4429;DHT22;2227;47.810;8.810;2024-03-22T09:37:35;24.70;85.00
4429;DHT22;2227;47.810;8.810;2024-03-22T09:40:01;25.00;83.60
4429;DHT22;2227;47.810;8.810;2024-03-22T09:42:33;26.00;80.70
4429;DHT22;2227;47.810;8.810;2024-03-22T09:44:59;26.20;79.50
4429;DHT22;2227;47.810;8.810;2024-03-22T09:47:27;25.80;80.70
4429;DHT22;2227;47.810;8.810;2024-03-22T09:49:53;26.20;79.20
4429;DHT22;2227;47.810;8.810;2024-03-22T09:52:20;26.20;78.60
4429;DHT22;2227;47.810;8.810;2024-03-22T09:54:46;26.00;79.00
4429;DHT22;2227;47.810;8.810;2024-03-22T09:57:14;25.80;80.10
4429;DHT22;2227;47.810;8.810;2024-03-22T09:59:47;25.40;79.20
4429;DHT22;2227;47.810;8.810;2024-03-22T10:02:13;25.20;80.30
4429;DHT22;2227;47.810;8.810;2024-03-22T10:04:42;25.20;80.10
4429;DHT22;2227;47.810;8.810;2024-03-22T10:07:08;25.40;78.90
4429;DHT22;2227;47.810;8.810;2024-03-22T10:09:36;25.70;79.40
4429;DHT22;2227;47.810;8.810;2024-03-22T10:12:02;26.70;76.20
4429;DHT22;2227;47.810;8.810;2024-03-22T10:14:29;26.80;75.30
4429;DHT22;2227;47.810;8.810;2024-03-22T10:16:57;27.40;74.60
4429;DHT22;2227;47.810;8.810;2024-03-22T10:19:23;26.90;73.10
4429;DHT22;2227;47.810;8.810;2024-03-22T10:22:04;26.00;74.50
4429;DHT22;2227;47.810;8.810;2024-03-22T10:24:33;25.60;77.00
4429;DHT22;2227;47.810;8.810;2024-03-22T10:27:00;25.70;75.50
4429;DHT22;2227;47.810;8.810;2024-03-22T10:29:26;25.80;76.40
4429;DHT22;2227;47.810;8.810;2024-03-22T10:31:53;25.50;76.90
4429;DHT22;2227;47.810;8.810;2024-03-22T10:34:21;25.20;77.70
4429;DHT22;2227;47.810;8.810;2024-03-22T10:36:47;25.30;76.10
4429;DHT22;2227;47.810;8.810;2024-03-22T10:39:16;26.10;76.00
4429;DHT22;2227;47.810;8.810;2024-03-22T10:41:45;27.30;72.60
4429;DHT22;2227;47.810;8.810;2024-03-22T10:44:11;27.90;70.80
4429;DHT22;2227;47.810;8.810;2024-03-22T10:46:38;28.60;68.60
4429;DHT22;2227;47.810;8.810;2024-03-22T10:49:09;27.90;68.80
4429;DHT22;2227;47.810;8.810;2024-03-22T10:51:36;27.60;68.90
4429;DHT22;2227;47.810;8.810;2024-03-22T10:54:03;27.40;69.30
4429;DHT22;2227;47.810;8.810;2024-03-22T10:56:30;27.60;69.90
4429;DHT22;2227;47.810;8.810;2024-03-22T10:58:56;27.40;67.80
4429;DHT22;2227;47.810;8.810;2024-03-22T11:01:25;27.30;65.90
4429;DHT22;2227;47.810;8.810;2024-03-22T11:03:51;26.60;67.90
4429;DHT22;2227;47.810;8.810;2024-03-22T11:06:20;26.80;68.60
4429;DHT22;2227;47.810;8.810;2024-03-22T11:08:51;26.10;69.50
4429;DHT22;2227;47.810;8.810;2024-03-22T11:11:18;26.50;68.90
4429;DHT22;2227;47.810;8.810;2024-03-22T11:13:47;25.80;69.20
4429;DHT22;2227;47.810;8.810;2024-03-22T11:16:16;25.90;69.00
4429;DHT22;2227;47.810;8.810;2024-03-22T11:18:42;26.20;69.00
4429;DHT22;2227;47.810;8.810;2024-03-22T11:21:08;26.20;69.20
4429;DHT22;2227;47.810;8.810;2024-03-22T11:23:36;26.50;68.70
4429;DHT22;2227;47.810;8.810;2024-03-22T11:26:03;26.40;68.40
4429;DHT22;2227;47.810;8.810;2024-03-22T11:28:30;25.70;69.50
4429;DHT22;2227;47.810;8.810;2024-03-22T11:30:56;24.80;73.20
4429;DHT22;2227;47.810;8.810;2024-03-22T11:33:22;24.50;73.40
4429;DHT22;2227;47.810;8.810;2024-03-22T11:35:48;24.20;74.40
4429;DHT22;2227;47.810;8.810;2024-03-22T11:38:16;24.80;72.10
4429;DHT22;2227;47.810;8.810;2024-03-22T11:40:43;24.30;71.30
4429;DHT22;2227;47.810;8.810;2024-03-22T11:43:10;23.30;73.30
4429;DHT22;2227;47.810;8.810;2024-03-22T11:45:37;22.90;76.50
4429;DHT22;2227;47.810;8.810;2024-03-22T11:48:03;23.50;74.30
4429;DHT22;2227;47.810;8.810;2024-03-22T11:50:29;23.80;74.50
4429;DHT22;2227;47.810;8.810;2024-03-22T11:52:56;24.40;72.90
4429;DHT22;2227;47.810;8.810;2024-03-22T11:55:22;24.60;73.20
4429;DHT22;2227;47.810;8.810;2024-03-22T11:57:48;24.70;71.90
4429;DHT22;2227;47.810;8.810;2024-03-22T12:00:16;24.30;72.30
4429;DHT22;2227;47.810;8.810;2024-03-22T12:02:43;24.10;74.10
4429;DHT22;2227;47.810;8.810;2024-03-22T12:05:09;23.80;73.60
4429;DHT22;2227;47.810;8.810;2024-03-22T12:07:36;23.70;73.00
4429;DHT22;2227;47.810;8.810;2024-03-22T12:10:02;23.60;73.50
4429;DHT22;2227;47.810;8.810;2024-03-22T12:12:29;23.30;74.20
4429;DHT22;2227;47.810;8.810;2024-03-22T12:14:55;23.10;73.50
4429;DHT22;2227;47.810;8.810;2024-03-22T12:17:21;23.00;74.80
4429;DHT22;2227;47.810;8.810;2024-03-22T12:19:47;23.40;73.80
4429;DHT22;2227;47.810;8.810;2024-03-22T12:22:13;22.80;74.70
4429;DHT22;2227;47.810;8.810;2024-03-22T12:24:39;23.20;74.70
4429;DHT22;2227;47.810;8.810;2024-03-22T12:27:05;22.90;71.90
4429;DHT22;2227;47.810;8.810;2024-03-22T12:29:34;22.90;71.10
4429;DHT22;2227;47.810;8.810;2024-03-22T12:32:01;22.60;73.50
4429;DHT22;2227;47.810;8.810;2024-03-22T12:34:29;22.30;73.10
4429;DHT22;2227;47.810;8.810;2024-03-22T12:36:56;22.40;73.80
4429;DHT22;2227;47.810;8.810;2024-03-22T12:39:21;22.60;72.60
4429;DHT22;2227;47.810;8.810;2024-03-22T12:41:47;22.60;70.10
4429;DHT22;2227;47.810;8.810;2024-03-22T12:44:13;22.50;69.30
4429;DHT22;2227;47.810;8.810;2024-03-22T12:46:39;22.50;69.20
4429;DHT22;2227;47.810;8.810;2024-03-22T12:49:07;21.90;71.30
4429;DHT22;2227;47.810;8.810;2024-03-22T12:51:35;21.60;70.10
4429;DHT22;2227;47.810;8.810;2024-03-22T12:54:01;21.70;70.10
4429;DHT22;2227;47.810;8.810;2024-03-22T12:56:27;21.90;69.70
4429;DHT22;2227;47.810;8.810;2024-03-22T12:58:53;22.30;67.70
4429;DHT22;2227;47.810;8.810;2024-03-22T13:01:19;22.50;67.40
4429;DHT22;2227;47.810;8.810;2024-03-22T13:03:45;22.30;68.50
4429;DHT22;2227;47.810;8.810;2024-03-22T13:06:10;22.90;65.40
4429;DHT22;2227;47.810;8.810;2024-03-22T13:08:36;22.90;65.00
4429;DHT22;2227;47.810;8.810;2024-03-22T13:11:02;22.60;66.30
4429;DHT22;2227;47.810;8.810;2024-03-22T13:13:28;22.40;66.80
4429;DHT22;2227;47.810;8.810;2024-03-22T13:15:57;22.20;67.30
4429;DHT22;2227;47.810;8.810;2024-03-22T13:18:23;22.10;68.30
4429;DHT22;2227;47.810;8.810;2024-03-22T13:20:49;21.80;69.40
4429;DHT22;2227;47.810;8.810;2024-03-22T13:23:15;22.40;68.90
4429;DHT22;2227;47.810;8.810;2024-03-22T13:25:41;23.00;67.00
4429;DHT22;2227;47.810;8.810;2024-03-22T13:28:07;23.40;65.50
4429;DHT22;2227;47.810;8.810;2024-03-22T13:30:33;23.80;63.50
4429;DHT22;2227;47.810;8.810;2024-03-22T13:33:01;23.80;61.90
4429;DHT22;2227;47.810;8.810;2024-03-22T13:35:26;23.30;62.70
4429;DHT22;2227;47.810;8.810;2024-03-22T13:37:52;22.90;63.10
4429;DHT22;2227;47.810;8.810;2024-03-22T13:40:18;22.60;64.70
4429;DHT22;2227;47.810;8.810;2024-03-22T13:42:44;22.20;65.90
4429;DHT22;2227;47.810;8.810;2024-03-22T13:45:10;22.40;66.60
4429;DHT22;2227;47.810;8.810;2024-03-22T13:47:36;22.80;64.90
4429;DHT22;2227;47.810;8.810;2024-03-22T13:50:09;22.40;64.30
4429;DHT22;2227;47.810;8.810;2024-03-22T13:52:35;22.20;64.90
4429;DHT22;2227;47.810;8.810;2024-03-22T13:55:01;22.10;65.40
4429;DHT22;2227;47.810;8.810;2024-03-22T13:57:27;22.10;65.70
4429;DHT22;2227;47.810;8.810;2024-03-22T13:59:53;22.40;64.90
4429;DHT22;2227;47.810;8.810;2024-03-22T14:02:19;23.20;63.80
4429;DHT22;2227;47.810;8.810;2024-03-22T14:04:45;23.30;61.20
4429;DHT22;2227;47.810;8.810;2024-03-22T14:07:11;23.20;62.30
4429;DHT22;2227;47.810;8.810;2024-03-22T14:09:37;23.30;62.60
4429;DHT22;2227;47.810;8.810;2024-03-22T14:12:03;23.80;60.50
4429;DHT22;2227;47.810;8.810;2024-03-22T14:14:29;23.90;56.50
4429;DHT22;2227;47.810;8.810;2024-03-22T14:16:55;23.70;57.20
4429;DHT22;2227;47.810;8.810;2024-03-22T14:19:21;23.70;55.20
4429;DHT22;2227;47.810;8.810;2024-03-22T14:21:47;23.50;53.20
4429;DHT22;2227;47.810;8.810;2024-03-22T14:24:13;23.30;52.50
4429;DHT22;2227;47.810;8.810;2024-03-22T14:26:39;23.30;52.70
4429;DHT22;2227;47.810;8.810;2024-03-22T14:29:17;23.40;52.90
4429;DHT22;2227;47.810;8.810;2024-03-22T14:31:45;23.00;53.30
4429;DHT22;2227;47.810;8.810;2024-03-22T14:34:11;22.90;53.80
4429;DHT22;2227;47.810;8.810;2024-03-22T14:36:37;23.10;51.70
4429;DHT22;2227;47.810;8.810;2024-03-22T14:39:03;23.30;51.90
4429;DHT22;2227;47.810;8.810;2024-03-22T14:41:32;23.40;51.80
4429;DHT22;2227;47.810;8.810;2024-03-22T14:43:58;23.60;51.20
4429;DHT22;2227;47.810;8.810;2024-03-22T14:46:23;24.30;51.00
4429;DHT22;2227;47.810;8.810;2024-03-22T14:48:54;24.80;49.10
4429;DHT22;2227;47.810;8.810;2024-03-22T14:51:20;24.90;49.70
4429;DHT22;2227;47.810;8.810;2024-03-22T14:53:46;24.50;49.10
4429;DHT22;2227;47.810;8.810;2024-03-22T14:56:12;24.30;50.30
4429;DHT22;2227;47.810;8.810;2024-03-22T14:58:38;24.40;50.00
4429;DHT22;2227;47.810;8.810;2024-03-22T15:01:05;24.80;48.40
4429;DHT22;2227;47.810;8.810;2024-03-22T15:03:31;24.90;47.40
4429;DHT22;2227;47.810;8.810;2024-03-22T15:05:58;24.80;48.00
4429;DHT22;2227;47.810;8.810;2024-03-22T15:08:27;24.80;48.80
4429;DHT22;2227;47.810;8.810;2024-03-22T15:10:56;24.80;48.50
4429;DHT22;2227;47.810;8.810;2024-03-22T15:13:22;24.50;48.40
4429;DHT22;2227;47.810;8.810;2024-03-22T15:15:54;24.30;49.00
4429;DHT22;2227;47.810;8.810;2024-03-22T15:18:21;24.60;49.70
4429;DHT22;2227;47.810;8.810;2024-03-22T15:20:47;24.50;49.70
4429;DHT22;2227;47.810;8.810;2024-03-22T15:23:14;24.50;49.00
4429;DHT22;2227;47.810;8.810;2024-03-22T15:25:44;24.70;49.10
4429;DHT22;2227;47.810;8.810;2024-03-22T15:28:10;24.70;49.50
4429;DHT22;2227;47.810;8.810;2024-03-22T15:30:37;24.70;49.20
4429;DHT22;2227;47.810;8.810;2024-03-22T15:33:04;24.50;49.40
4429;DHT22;2227;47.810;8.810;2024-03-22T15:35:30;23.70;50.90
4429;DHT22;2227;47.810;8.810;2024-03-22T15:37:57;23.00;51.60
4429;DHT22;2227;47.810;8.810;2024-03-22T15:40:23;22.50;52.90
4429;DHT22;2227;47.810;8.810;2024-03-22T15:42:50;22.30;51.60
4429;DHT22;2227;47.810;8.810;2024-03-22T15:45:15;22.40;52.50
4429;DHT22;2227;47.810;8.810;2024-03-22T15:47:41;22.30;52.10
4429;DHT22;2227;47.810;8.810;2024-03-22T15:50:08;22.10;51.30
4429;DHT22;2227;47.810;8.810;2024-03-22T15:52:35;21.50;51.10
4429;DHT22;2227;47.810;8.810;2024-03-22T15:55:01;21.30;52.20
4429;DHT22;2227;47.810;8.810;2024-03-22T15:57:28;21.10;52.60
4429;DHT22;2227;47.810;8.810;2024-03-22T15:59:54;20.90;53.00
4429;DHT22;2227;47.810;8.810;2024-03-22T16:02:20;20.80;54.60
4429;DHT22;2227;47.810;8.810;2024-03-22T16:04:49;20.80;55.10
4429;DHT22;2227;47.810;8.810;2024-03-22T16:07:15;20.50;54.90
4429;DHT22;2227;47.810;8.810;2024-03-22T16:09:40;20.60;56.10
4429;DHT22;2227;47.810;8.810;2024-03-22T16:12:07;20.50;56.00
4429;DHT22;2227;47.810;8.810;2024-03-22T16:14:33;20.50;55.60
4429;DHT22;2227;47.810;8.810;2024-03-22T16:16:59;20.40;56.20
4429;DHT22;2227;47.810;8.810;2024-03-22T16:19:25;20.50;56.30
4429;DHT22;2227;47.810;8.810;2024-03-22T16:21:51;20.80;56.00
4429;DHT22;2227;47.810;8.810;2024-03-22T16:24:17;21.10;55.90
4429;DHT22;2227;47.810;8.810;2024-03-22T16:26:46;21.00;56.50
4429;DHT22;2227;47.810;8.810;2024-03-22T16:29:12;21.00;56.90
4429;DHT22;2227;47.810;8.810;2024-03-22T16:31:38;21.00;56.80
4429;DHT22;2227;47.810;8.810;2024-03-22T16:34:04;21.00;55.80
4429;DHT22;2227;47.810;8.810;2024-03-22T16:36:30;20.90;56.50
4429;DHT22;2227;47.810;8.810;2024-03-22T16:38:58;20.70;56.90
4429;DHT22;2227;47.810;8.810;2024-03-22T16:41:23;20.60;58.00
4429;DHT22;2227;47.810;8.810;2024-03-22T16:43:49;20.50;59.10
4429;DHT22;2227;47.810;8.810;2024-03-22T16:46:15;20.30;57.80
4429;DHT22;2227;47.810;8.810;2024-03-22T16:48:41;20.00;58.10
4429;DHT22;2227;47.810;8.810;2024-03-22T16:51:06;19.90;59.10
4429;DHT22;2227;47.810;8.810;2024-03-22T16:53:32;19.80;60.00
4429;DHT22;2227;47.810;8.810;2024-03-22T16:55:58;19.80;60.40
4429;DHT22;2227;47.810;8.810;2024-03-22T16:58:24;19.80;60.20
4429;DHT22;2227;47.810;8.810;2024-03-22T17:00:52;20.00;60.20
4429;DHT22;2227;47.810;8.810;2024-03-22T17:03:18;19.90;58.90
4429;DHT22;2227;47.810;8.810;2024-03-22T17:05:44;19.70;61.70
4429;DHT22;2227;47.810;8.810;2024-03-22T17:08:09;19.50;61.00
4429;DHT22;2227;47.810;8.810;2024-03-22T17:10:43;19.40;60.20
4429;DHT22;2227;47.810;8.810;2024-03-22T17:13:08;19.50;61.10
4429;DHT22;2227;47.810;8.810;2024-03-22T17:15:34;19.50;61.90
4429;DHT22;2227;47.810;8.810;2024-03-22T17:18:03;19.50;61.30
4429;DHT22;2227;47.810;8.810;2024-03-22T17:20:29;19.40;62.60
4429;DHT22;2227;47.810;8.810;2024-03-22T17:22:57;19.10;63.60
4429;DHT22;2227;47.810;8.810;2024-03-22T17:25:23;19.20;65.00
4429;DHT22;2227;47.810;8.810;2024-03-22T17:27:49;19.20;66.70
4429;DHT22;2227;47.810;8.810;2024-03-22T17:30:15;19.20;67.60
4429;DHT22;2227;47.810;8.810;2024-03-22T17:32:41;19.00;69.10
4429;DHT22;2227;47.810;8.810;2024-03-22T17:35:07;18.80;70.50
4429;DHT22;2227;47.810;8.810;2024-03-22T17:37:35;18.70;70.00
4429;DHT22;2227;47.810;8.810;2024-03-22T17:40:02;18.50;71.00
4429;DHT22;2227;47.810;8.810;2024-03-22T17:42:28;18.40;72.20
4429;DHT22;2227;47.810;8.810;2024-03-22T17:44:54;18.20;71.50
4429;DHT22;2227;47.810;8.810;2024-03-22T17:47:20;18.10;74.80
4429;DHT22;2227;47.810;8.810;2024-03-22T17:49:46;17.90;74.90
4429;DHT22;2227;47.810;8.810;2024-03-22T17:52:13;17.70;75.40
4429;DHT22;2227;47.810;8.810;2024-03-22T17:54:39;17.50;77.20
4429;DHT22;2227;47.810;8.810;2024-03-22T17:57:05;17.30;77.60
4429;DHT22;2227;47.810;8.810;2024-03-22T17:59:31;17.00;78.60
4429;DHT22;2227;47.810;8.810;2024-03-22T18:01:57;16.80;78.50
4429;DHT22;2227;47.810;8.810;2024-03-22T18:04:23;16.70;78.90
4429;DHT22;2227;47.810;8.810;2024-03-22T18:06:49;16.70;80.50
4429;DHT22;2227;47.810;8.810;2024-03-22T18:09:15;16.70;79.60
4429;DHT22;2227;47.810;8.810;2024-03-22T18:11:41;16.50;82.30
4429;DHT22;2227;47.810;8.810;2024-03-22T18:14:08;16.30;82.90
4429;DHT22;2227;47.810;8.810;2024-03-22T18:16:34;16.10;84.10
4429;DHT22;2227;47.810;8.810;2024-03-22T18:19:02;15.90;84.00
4429;DHT22;2227;47.810;8.810;2024-03-22T18:21:29;15.80;85.10
4429;DHT22;2227;47.810;8.810;2024-03-22T18:23:56;15.70;85.40
4429;DHT22;2227;47.810;8.810;2024-03-22T18:26:22;15.60;86.60
4429;DHT22;2227;47.810;8.810;2024-03-22T18:28:48;15.50;86.30
4429;DHT22;2227;47.810;8.810;2024-03-22T18:31:13;15.40;85.80
4429;DHT22;2227;47.810;8.810;2024-03-22T18:33:39;15.40;85.80
4429;DHT22;2227;47.810;8.810;2024-03-22T18:36:05;15.40;87.30
4429;DHT22;2227;47.810;8.810;2024-03-22T18:38:32;15.30;87.40
4429;DHT22;2227;47.810;8.810;2024-03-22T18:41:08;15.10;88.60
4429;DHT22;2227;47.810;8.810;2024-03-22T18:43:34;15.10;89.00
4429;DHT22;2227;47.810;8.810;2024-03-22T18:46:00;15.00;89.80
4429;DHT22;2227;47.810;8.810;2024-03-22T18:48:26;15.00;90.00
4429;DHT22;2227;47.810;8.810;2024-03-22T18:50:53;14.90;90.40
4429;DHT22;2227;47.810;8.810;2024-03-22T18:53:19;14.90;90.10
4429;DHT22;2227;47.810;8.810;2024-03-22T18:55:45;14.80;90.60
4429;DHT22;2227;47.810;8.810;2024-03-22T18:58:11;14.80;90.90
4429;DHT22;2227;47.810;8.810;2024-03-22T19:00:37;14.80;91.30
4429;DHT22;2227;47.810;8.810;2024-03-22T19:03:04;14.80;91.60
4429;DHT22;2227;47.810;8.810;2024-03-22T19:05:30;14.70;92.00
4429;DHT22;2227;47.810;8.810;2024-03-22T19:07:56;14.60;92.40
4429;DHT22;2227;47.810;8.810;2024-03-22T19:10:22;14.50;92.70
4429;DHT22;2227;47.810;8.810;2024-03-22T19:12:48;14.50;92.80
4429;DHT22;2227;47.810;8.810;2024-03-22T19:15:15;14.40;92.60
4429;DHT22;2227;47.810;8.810;2024-03-22T19:17:40;14.30;92.70
4429;DHT22;2227;47.810;8.810;2024-03-22T19:20:08;14.30;93.20
4429;DHT22;2227;47.810;8.810;2024-03-22T19:22:35;14.30;93.60
4429;DHT22;2227;47.810;8.810;2024-03-22T19:25:01;14.10;94.40
4429;DHT22;2227;47.810;8.810;2024-03-22T19:27:27;14.00;94.80
4429;DHT22;2227;47.810;8.810;2024-03-22T19:29:53;14.00;94.70
4429;DHT22;2227;47.810;8.810;2024-03-22T19:32:19;13.90;94.80
4429;DHT22;2227;47.810;8.810;2024-03-22T19:34:45;13.90;95.10
4429;DHT22;2227;47.810;8.810;2024-03-22T19:37:10;13.70;96.00
4429;DHT22;2227;47.810;8.810;2024-03-22T19:39:36;13.60;96.60
4429;DHT22;2227;47.810;8.810;2024-03-22T19:42:03;13.50;97.00
4429;DHT22;2227;47.810;8.810;2024-03-22T19:44:29;13.30;97.50
4429;DHT22;2227;47.810;8.810;2024-03-22T19:46:56;13.40;97.60
4429;DHT22;2227;47.810;8.810;2024-03-22T19:49:24;13.40;97.90
4429;DHT22;2227;47.810;8.810;2024-03-22T19:51:50;13.30;98.00
4429;DHT22;2227;47.810;8.810;2024-03-22T19:54:15;13.30;98.30
4429;DHT22;2227;47.810;8.810;2024-03-22T19:56:41;13.20;98.30
4429;DHT22;2227;47.810;8.810;2024-03-22T19:59:07;13.10;98.60
4429;DHT22;2227;47.810;8.810;2024-03-22T20:01:33;13.00;99.10
4429;DHT22;2227;47.810;8.810;2024-03-22T20:03:59;12.90;99.40
4429;DHT22;2227;47.810;8.810;2024-03-22T20:06:25;12.80;99.50
4429;DHT22;2227;47.810;8.810;2024-03-22T20:08:51;12.80;99.40
4429;DHT22;2227;47.810;8.810;2024-03-22T20:11:17;12.70;99.10
4429;DHT22;2227;47.810;8.810;2024-03-22T20:13:43;12.70;99.40
4429;DHT22;2227;47.810;8.810;2024-03-22T20:16:09;12.70;99.90
4429;DHT22;2227;47.810;8.810;2024-03-22T20:18:35;12.60;99.90
4429;DHT22;2227;47.810;8.810;2024-03-22T20:21:01;12.50;99.90
4429;DHT22;2227;47.810;8.810;2024-03-22T20:23:27;12.50;99.90
4429;DHT22;2227;47.810;8.810;2024-03-22T20:25:52;12.50;99.90
4429;DHT22;2227;47.810;8.810;2024-03-22T20:28:20;12.30;99.90
4429;DHT22;2227;47.810;8.810;2024-03-22T20:30:46;12.30;99.90
4429;DHT22;2227;47.810;8.810;2024-03-22T20:33:12;12.20;99.90
4429;DHT22;2227;47.810;8.810;2024-03-22T20:35:37;12.20;99.90
4429;DHT22;2227;47.810;8.810;2024-03-22T20:38:03;12.10;99.90
